Time;durP1;ratioP1;P1;durP2;ratioP2;P2;SDS_P1;SDS_P2;PMS_P1;PMS_P2;Temp;Humidity;BMP_temperature;BMP_pressure;BME280_temperature;BME280_humidity;BME280_pressure;Samples;Min_cycle;Max_cycle;Signal;HPM_P1;HPM_P2
2023/02/22 00:00:48;;;;;;;69.40;25.73;;;;;;;;;;4954112;28;20442;-79
2023/02/22 00:03:14;;;;;;;74.37;27.93;;;;;;;;;;4946641;28;20458;-78
2023/02/22 00:05:45;;;;;;;78.70;29.60;;;;;;;;;;4952884;28;20472;-79
2023/02/22 00:08:13;;;;;;;88.03;30.10;;;;;;;;;;4946913;28;21025;-79
2023/02/22 00:10:39;;;;;;;79.00;26.70;;;;;;;;;;4951100;28;20441;-79
2023/02/22 00:13:06;;;;;;;77.20;25.80;;;;;;;;;;4947480;28;20464;-77
2023/02/22 00:15:36;;;;;;;90.60;30.42;;;;;;;;;;4950385;28;20453;-78
2023/02/22 00:18:04;;;;;;;95.07;28.93;;;;;;;;;;4949351;28;20666;-79
2023/02/22 00:20:30;;;;;;;83.47;28.53;;;;;;;;;;4945944;28;21123;-80
2023/02/22 00:22:56;;;;;;;78.53;28.67;;;;;;;;;;4928035;28;20532;-78
2023/02/22 00:25:23;;;;;;;74.93;29.00;;;;;;;;;;4931014;28;20537;-78
2023/02/22 00:27:52;;;;;;;97.43;33.90;;;;;;;;;;4926906;28;20458;-78
2023/02/22 00:30:20;;;;;;;86.47;30.63;;;;;;;;;;4929229;28;20443;-77
2023/02/22 00:32:46;;;;;;;73.80;25.17;;;;;;;;;;4934995;28;20465;-79
2023/02/22 00:35:14;;;;;;;78.40;27.77;;;;;;;;;;4950824;28;20445;-79
2023/02/22 00:37:43;;;;;;;99.13;29.37;;;;;;;;;;4947211;28;20677;-78
2023/02/22 00:40:14;;;;;;;94.72;29.83;;;;;;;;;;4954229;28;20448;-77
2023/02/22 00:42:40;;;;;;;85.60;28.60;;;;;;;;;;4953826;28;20557;-78
2023/02/22 00:45:07;;;;;;;101.00;28.40;;;;;;;;;;4943262;28;20473;-78
2023/02/22 00:47:33;;;;;;;98.93;28.10;;;;;;;;;;4950735;28;20607;-78
2023/02/22 00:49:59;;;;;;;62.03;22.33;;;;;;;;;;4957822;28;20450;-77
2023/02/22 00:52:26;;;;;;;84.73;28.30;;;;;;;;;;4962120;28;20489;-77
2023/02/22 00:54:53;;;;;;;72.93;27.10;;;;;;;;;;4958452;28;21058;-78
2023/02/22 00:57:19;;;;;;;73.77;26.93;;;;;;;;;;4953487;28;20457;-78
2023/02/22 00:59:45;;;;;;;80.93;26.40;;;;;;;;;;4951345;28;20563;-79
2023/02/22 01:02:12;;;;;;;69.40;25.60;;;;;;;;;;4950801;28;21157;-77
2023/02/22 01:04:38;;;;;;;67.73;23.07;;;;;;;;;;4955909;28;20453;-79
2023/02/22 01:07:04;;;;;;;60.27;21.77;;;;;;;;;;4953537;28;20790;-78
2023/02/22 01:09:31;;;;;;;51.47;22.57;;;;;;;;;;4950543;28;20475;-78
2023/02/22 01:11:57;;;;;;;64.47;23.83;;;;;;;;;;4951191;28;20449;-79
2023/02/22 01:14:25;;;;;;;52.50;24.90;;;;;;;;;;4949467;28;20445;-77
2023/02/22 01:16:51;;;;;;;74.33;24.43;;;;;;;;;;4951075;28;21044;-77
2023/02/22 01:19:17;;;;;;;50.23;19.97;;;;;;;;;;4951644;28;20519;-78
2023/02/22 01:21:43;;;;;;;57.10;21.87;;;;;;;;;;4957081;28;20502;-79
2023/02/22 01:24:10;;;;;;;42.70;20.87;;;;;;;;;;4954680;28;20452;-79
2023/02/22 01:26:36;;;;;;;51.47;21.60;;;;;;;;;;4956145;28;20528;-78
2023/02/22 01:29:02;;;;;;;54.93;20.93;;;;;;;;;;4955878;28;20536;-78
2023/02/22 01:31:28;;;;;;;64.17;22.30;;;;;;;;;;4951861;28;21441;-78
2023/02/22 01:33:54;;;;;;;52.80;19.70;;;;;;;;;;4958688;28;20916;-78
2023/02/22 01:36:21;;;;;;;78.60;25.00;;;;;;;;;;4957589;28;20450;-78
2023/02/22 01:38:47;;;;;;;59.13;23.23;;;;;;;;;;4958278;28;20477;-79
2023/02/22 01:41:16;;;;;;;75.00;22.30;;;;;;;;;;4956665;28;20524;-79
2023/02/22 01:43:42;;;;;;;51.40;21.47;;;;;;;;;;4957963;28;20453;-79
2023/02/22 01:46:25;;;;;;;55.80;20.50;;;;;;;;;;4932264;28;20474;-79
2023/02/22 01:48:51;;;;;;;50.33;21.30;;;;;;;;;;4955542;28;20421;-79
2023/02/22 01:51:19;;;;;;;73.63;20.20;;;;;;;;;;4951112;28;20460;-78
2023/02/22 01:53:49;;;;;;;93.67;21.60;;;;;;;;;;4954633;28;20489;-77
2023/02/22 01:56:15;;;;;;;67.85;20.90;;;;;;;;;;4955984;28;20954;-77
2023/02/22 01:58:43;;;;;;;69.60;22.40;;;;;;;;;;4957525;28;20354;-78
2023/02/22 02:01:10;;;;;;;105.90;22.90;;;;;;;;;;4936339;28;20506;-78
2023/02/22 02:03:37;;;;;;;68.37;22.43;;;;;;;;;;4955671;28;20478;-78
2023/02/22 02:06:05;;;;;;;61.60;19.90;;;;;;;;;;4953869;28;20456;-80
2023/02/22 02:08:34;;;;;;;71.87;19.80;;;;;;;;;;4951560;28;20449;-78
2023/02/22 02:11:01;;;;;;;59.90;22.20;;;;;;;;;;4951951;28;21178;-77
2023/02/22 02:13:27;;;;;;;52.93;21.70;;;;;;;;;;4954239;28;20873;-78
2023/02/22 02:15:55;;;;;;;101.33;24.10;;;;;;;;;;4955942;28;20979;-79
2023/02/22 02:18:22;;;;;;;60.83;21.73;;;;;;;;;;4953814;28;21247;-77
2023/02/22 02:21:00;;;;;;;90.37;22.60;;;;;;;;;;4952426;28;20565;-78
2023/02/22 02:23:39;;;;;;;69.38;21.42;;;;;;;;;;4952789;28;22278;-78
2023/02/22 02:26:20;;;;;;;71.00;21.60;;;;;;;;;;4955882;28;20341;-78
2023/02/22 02:28:49;;;;;;;73.53;22.70;;;;;;;;;;4943247;28;20446;-78
2023/02/22 02:31:42;;;;;;;84.63;25.20;;;;;;;;;;4955679;28;20552;-78
2023/02/22 02:34:16;;;;;;;92.60;24.87;;;;;;;;;;4954256;28;20944;-79
2023/02/22 02:36:43;;;;;;;75.07;24.13;;;;;;;;;;4951305;28;20457;-78
2023/02/22 02:39:48;;;;;;;200.63;26.23;;;;;;;;;;4958169;28;20215;-78
2023/02/22 02:42:16;;;;;;;131.97;25.27;;;;;;;;;;4880287;29;20472;-79
2023/02/22 02:44:55;;;;;;;60.27;20.93;;;;;;;;;;4883738;29;20551;-78
2023/02/22 02:47:26;;;;;;;158.03;23.10;;;;;;;;;;4926760;28;20437;-78
2023/02/22 02:49:57;;;;;;;92.67;22.37;;;;;;;;;;4976113;28;20461;-78
2023/02/22 02:52:25;;;;;;;103.20;21.60;;;;;;;;;;4956468;28;20706;-79
2023/02/22 02:54:51;;;;;;;75.37;23.90;;;;;;;;;;4961856;28;20493;-78
2023/02/22 02:57:17;;;;;;;66.40;19.23;;;;;;;;;;4937612;28;20454;-77
2023/02/22 02:59:43;;;;;;;102.57;22.13;;;;;;;;;;4957027;28;20495;-77
2023/02/22 03:02:21;;;;;;;70.07;21.20;;;;;;;;;;4955018;28;20552;-77
2023/02/22 03:05:03;;;;;;;58.27;19.10;;;;;;;;;;4953920;28;20500;-78
2023/02/22 03:07:37;;;;;;;90.30;22.17;;;;;;;;;;4952355;28;20965;-78
2023/02/22 03:10:03;;;;;;;56.27;19.27;;;;;;;;;;4965336;28;20432;-78
2023/02/22 03:12:29;;;;;;;57.13;19.50;;;;;;;;;;4966693;28;20994;-77
2023/02/22 03:15:07;;;;;;;77.60;20.90;;;;;;;;;;4964020;28;20463;-77
2023/02/22 03:17:54;;;;;;;95.07;19.97;;;;;;;;;;4951433;28;20453;-78
2023/02/22 03:20:30;;;;;;;47.10;16.37;;;;;;;;;;4950917;28;20465;-77
2023/02/22 03:23:16;;;;;;;58.53;20.52;;;;;;;;;;4951766;28;21026;-78
2023/02/22 03:25:45;;;;;;;62.30;17.58;;;;;;;;;;4935715;28;20897;-78
2023/02/22 03:28:14;;;;;;;103.45;16.30;;;;;;;;;;4950077;28;20582;-78
2023/02/22 03:31:06;;;;;;;50.10;15.17;;;;;;;;;;4955812;28;20190;-79
2023/02/22 03:33:36;;;;;;;93.10;17.67;;;;;;;;;;4950372;28;20457;-79
2023/02/22 03:36:05;;;;;;;38.30;12.98;;;;;;;;;;4957684;28;20312;-79
2023/02/22 03:38:32;;;;;;;45.70;14.77;;;;;;;;;;4953044;28;20703;-79
2023/02/22 03:40:59;;;;;;;34.57;14.97;;;;;;;;;;4957285;28;20842;-78
2023/02/22 03:43:29;;;;;;;30.67;13.75;;;;;;;;;;4954357;28;20885;-79
2023/02/22 03:45:55;;;;;;;26.23;12.40;;;;;;;;;;4957928;28;20213;-79
2023/02/22 03:48:39;;;;;;;24.90;10.55;;;;;;;;;;4954189;28;20186;-78
2023/02/22 03:51:05;;;;;;;20.60;12.73;;;;;;;;;;4958532;28;20183;-79
2023/02/22 03:53:33;;;;;;;23.47;11.40;;;;;;;;;;4953655;28;20457;-78
2023/02/22 03:56:00;;;;;;;25.95;9.82;;;;;;;;;;4956694;28;20460;-79
2023/02/22 03:58:30;;;;;;;58.60;12.83;;;;;;;;;;4953515;28;20645;-79
2023/02/22 04:00:57;;;;;;;27.93;11.47;;;;;;;;;;4956719;28;20429;-78
2023/02/22 04:03:26;;;;;;;20.17;12.30;;;;;;;;;;4956360;28;20456;-79
2023/02/22 04:05:52;;;;;;;15.63;10.80;;;;;;;;;;4957205;28;20457;-78
2023/02/22 04:08:18;;;;;;;30.23;11.73;;;;;;;;;;4954307;28;20463;-79
2023/02/22 04:10:44;;;;;;;18.73;10.10;;;;;;;;;;4957556;28;20465;-77
2023/02/22 04:13:13;;;;;;;20.90;9.77;;;;;;;;;;4953174;28;21060;-78
2023/02/22 04:15:39;;;;;;;11.23;8.15;;;;;;;;;;4958290;28;20513;-78
2023/02/22 04:18:05;;;;;;;15.27;9.37;;;;;;;;;;4955866;28;20678;-77
2023/02/22 04:20:33;;;;;;;18.00;11.67;;;;;;;;;;4956914;28;20467;-78
2023/02/22 04:22:59;;;;;;;18.75;10.02;;;;;;;;;;4959738;28;20441;-78
2023/02/22 04:25:25;;;;;;;27.77;12.10;;;;;;;;;;4954567;28;21088;-78
2023/02/22 04:27:52;;;;;;;25.43;12.53;;;;;;;;;;4958043;28;20578;-79
2023/02/22 04:30:18;;;;;;;25.47;11.33;;;;;;;;;;4953844;28;20449;-79
2023/02/22 04:32:45;;;;;;;42.43;13.27;;;;;;;;;;4959212;28;20449;-79
2023/02/22 04:35:11;;;;;;;34.43;11.87;;;;;;;;;;4955112;28;20489;-78
2023/02/22 04:37:37;;;;;;;45.43;12.93;;;;;;;;;;4954247;28;20884;-79
2023/02/22 04:40:06;;;;;;;23.20;9.90;;;;;;;;;;4955287;28;20465;-79
2023/02/22 04:42:33;;;;;;;19.63;10.53;;;;;;;;;;4953611;28;20587;-78
2023/02/22 04:44:59;;;;;;;26.67;10.70;;;;;;;;;;4980705;28;20460;-78
2023/02/22 04:47:25;;;;;;;19.77;10.60;;;;;;;;;;4987630;28;20452;-77
2023/02/22 04:49:51;;;;;;;22.17;9.43;;;;;;;;;;4976155;28;21147;-77
2023/02/22 04:52:17;;;;;;;22.50;8.87;;;;;;;;;;4973043;28;20449;-78
2023/02/22 04:54:43;;;;;;;31.48;11.02;;;;;;;;;;4974072;28;20437;-79
2023/02/22 04:57:09;;;;;;;16.27;10.40;;;;;;;;;;4972267;28;20190;-81
2023/02/22 04:59:35;;;;;;;24.02;11.80;;;;;;;;;;4969665;28;20534;-79
2023/02/22 05:02:02;;;;;;;17.80;9.57;;;;;;;;;;4969409;28;20182;-79
2023/02/22 05:04:28;;;;;;;21.40;9.17;;;;;;;;;;4967494;28;20447;-79
2023/02/22 05:06:54;;;;;;;18.00;9.97;;;;;;;;;;4974671;28;20448;-79
2023/02/22 05:09:23;;;;;;;27.53;10.77;;;;;;;;;;4977287;28;20455;-77
2023/02/22 05:11:49;;;;;;;17.10;9.43;;;;;;;;;;4959271;28;20500;-80
2023/02/22 05:14:15;;;;;;;20.60;11.40;;;;;;;;;;4978362;28;20602;-79
2023/02/22 05:16:41;;;;;;;22.38;10.80;;;;;;;;;;4969700;28;20457;-80
2023/02/22 05:19:07;;;;;;;25.60;9.67;;;;;;;;;;4968242;28;20556;-79
2023/02/22 05:21:33;;;;;;;25.50;11.07;;;;;;;;;;4960982;28;20465;-79
2023/02/22 05:23:59;;;;;;;23.13;11.00;;;;;;;;;;4965334;28;20525;-80
2023/02/22 05:26:25;;;;;;;24.13;12.07;;;;;;;;;;4967529;28;21138;-79
2023/02/22 05:28:51;;;;;;;17.90;9.95;;;;;;;;;;4966091;28;20456;-79
2023/02/22 05:31:17;;;;;;;20.43;11.10;;;;;;;;;;4969898;28;20186;-79
2023/02/22 05:33:43;;;;;;;19.23;11.00;;;;;;;;;;4967739;28;21018;-80
2023/02/22 05:36:10;;;;;;;21.27;11.38;;;;;;;;;;4950873;28;20485;-81
2023/02/22 05:38:42;;;;;;;25.08;13.07;;;;;;;;;;4965381;28;20220;-81
2023/02/22 05:41:09;;;;;;;43.78;12.15;;;;;;;;;;4969626;28;20277;-80
2023/02/22 05:43:35;;;;;;;24.05;13.43;;;;;;;;;;4966877;28;20242;-81
2023/02/22 05:46:01;;;;;;;21.80;11.60;;;;;;;;;;4968934;28;20207;-81
2023/02/22 05:48:27;;;;;;;20.23;13.00;;;;;;;;;;4946988;28;20433;-80
2023/02/22 05:51:06;;;;;;;24.97;11.47;;;;;;;;;;4986507;23;20570;-89
2023/02/22 05:53:32;;;;;;;28.90;12.43;;;;;;;;;;4914852;29;20443;-87
2023/02/22 05:56:01;;;;;;;20.00;11.53;;;;;;;;;;4921456;29;20195;-89
2023/02/22 05:58:32;;;;;;;19.43;12.60;;;;;;;;;;4923794;29;20470;-90
2023/02/22 06:00:58;;;;;;;25.47;13.33;;;;;;;;;;4923194;29;20843;-90
2023/02/22 06:03:36;;;;;;;22.33;13.30;;;;;;;;;;4911902;29;20665;-88
2023/02/22 06:06:04;;;;;;;29.10;11.00;;;;;;;;;;4923497;29;20426;-88
2023/02/22 06:08:30;;;;;;;21.63;11.45;;;;;;;;;;4920961;29;20202;-90
2023/02/22 06:11:01;;;;;;;23.73;12.20;;;;;;;;;;4942144;28;20191;-89
2023/02/22 06:13:30;;;;;;;39.17;12.98;;;;;;;;;;4927500;29;20514;-88
2023/02/22 06:15:58;;;;;;;27.17;13.65;;;;;;;;;;4922004;29;20191;-89
2023/02/22 06:18:25;;;;;;;22.67;12.43;;;;;;;;;;4920384;29;20227;-88
2023/02/22 06:20:51;;;;;;;26.50;13.35;;;;;;;;;;4913811;29;20219;-88
2023/02/22 06:23:17;;;;;;;29.98;12.60;;;;;;;;;;4933084;29;20188;-89
2023/02/22 06:25:43;;;;;;;27.55;13.80;;;;;;;;;;4915286;29;20317;-88
2023/02/22 06:28:09;;;;;;;23.25;13.27;;;;;;;;;;4931966;29;20183;-88
2023/02/22 06:30:36;;;;;;;50.55;13.32;;;;;;;;;;4916290;29;20195;-87
2023/02/22 06:33:02;;;;;;;24.20;12.27;;;;;;;;;;4918822;29;20530;-88
2023/02/22 06:35:28;;;;;;;27.02;13.20;;;;;;;;;;4929713;29;20868;-87
2023/02/22 06:37:54;;;;;;;34.33;13.35;;;;;;;;;;4933561;29;20632;-90
2023/02/22 06:40:20;;;;;;;22.98;12.75;;;;;;;;;;4948058;28;20194;-85
2023/02/22 06:42:48;;;;;;;17.00;9.97;;;;;;;;;;4951798;29;20187;-90
2023/02/22 06:45:15;;;;;;;17.00;10.70;;;;;;;;;;4939026;29;20468;-89
2023/02/22 06:47:44;;;;;;;15.90;11.70;;;;;;;;;;4937935;29;20450;-88
2023/02/22 06:50:18;;;;;;;14.07;10.27;;;;;;;;;;4954212;29;20190;-87
2023/02/22 06:52:46;;;;;;;13.52;9.52;;;;;;;;;;4952401;29;20465;-89
2023/02/22 06:55:15;;;;;;;16.80;10.75;;;;;;;;;;4932223;29;20198;-90
2023/02/22 06:57:42;;;;;;;14.57;9.60;;;;;;;;;;4950367;29;20637;-88
2023/02/22 07:00:11;;;;;;;13.57;9.40;;;;;;;;;;4948704;29;20450;-90
2023/02/22 07:02:41;;;;;;;15.47;10.53;;;;;;;;;;4935566;29;20440;-89
2023/02/22 07:05:09;;;;;;;13.10;8.90;;;;;;;;;;4944851;28;20433;-87
2023/02/22 07:07:37;;;;;;;13.02;9.23;;;;;;;;;;4934640;29;20430;-88
2023/02/22 07:10:03;;;;;;;14.25;9.60;;;;;;;;;;4934744;29;20202;-90
2023/02/22 07:12:32;;;;;;;11.35;9.20;;;;;;;;;;4939835;29;20190;-87
2023/02/22 07:14:58;;;;;;;16.70;10.20;;;;;;;;;;4951439;28;20337;-87
2023/02/22 07:17:32;;;;;;;43.53;9.50;;;;;;;;;;4937619;29;20193;-87
2023/02/22 07:19:58;;;;;;;16.70;9.83;;;;;;;;;;4949484;29;20496;-88
2023/02/22 07:22:24;;;;;;;16.58;10.05;;;;;;;;;;4938487;28;20446;-88
2023/02/22 07:24:50;;;;;;;26.02;10.52;;;;;;;;;;4936134;29;20289;-88
2023/02/22 07:27:16;;;;;;;22.08;10.13;;;;;;;;;;4937633;28;20243;-89
2023/02/22 07:29:43;;;;;;;21.13;8.80;;;;;;;;;;4953983;29;20269;-89
2023/02/22 07:32:09;;;;;;;28.03;11.03;;;;;;;;;;4946444;29;20450;-88
2023/02/22 07:34:52;;;;;;;13.83;9.23;;;;;;;;;;4936261;29;20461;-89
2023/02/22 07:37:18;;;;;;;18.40;10.00;;;;;;;;;;4938217;29;20634;-83
2023/02/22 07:39:48;;;;;;;22.52;10.88;;;;;;;;;;4958838;29;20465;-88
2023/02/22 07:42:14;;;;;;;17.93;9.77;;;;;;;;;;4959246;29;20205;-94
2023/02/22 07:44:43;;;;;;;13.23;8.80;;;;;;;;;;4958004;29;20434;-90
2023/02/22 07:47:11;;;;;;;14.40;8.43;;;;;;;;;;4971720;29;20434;-91
2023/02/22 07:49:38;;;;;;;13.70;9.20;;;;;;;;;;4971002;28;20445;-89
2023/02/22 07:52:21;;;;;;;10.15;9.15;;;;;;;;;;4964262;28;20837;-91
2023/02/22 07:54:47;;;;;;;23.43;9.90;;;;;;;;;;4952641;23;20236;-80
2023/02/22 07:57:13;;;;;;;10.07;8.07;;;;;;;;;;4955134;28;20469;-81
2023/02/22 07:59:39;;;;;;;8.63;7.30;;;;;;;;;;4951392;28;20477;-81
2023/02/22 08:02:05;;;;;;;8.20;7.43;;;;;;;;;;4971174;29;20441;-80
2023/02/22 08:04:31;;;;;;;8.30;7.30;;;;;;;;;;4965856;28;20445;-82
2023/02/22 08:06:57;;;;;;;7.07;6.50;;;;;;;;;;4964893;28;20416;-83
2023/02/22 08:09:23;;;;;;;6.90;6.23;;;;;;;;;;4949021;28;20434;-79
2023/02/22 08:11:49;;;;;;;8.03;7.33;;;;;;;;;;4939294;29;20419;-82
2023/02/22 08:14:16;;;;;;;7.77;6.87;;;;;;;;;;4946805;28;20438;-80
2023/02/22 08:16:42;;;;;;;11.03;7.73;;;;;;;;;;4944935;29;20415;-81
2023/02/22 08:19:08;;;;;;;6.47;5.97;;;;;;;;;;4948776;28;20968;-80
2023/02/22 08:21:34;;;;;;;6.93;6.23;;;;;;;;;;4946750;29;20414;-80
2023/02/22 08:24:00;;;;;;;6.57;6.07;;;;;;;;;;4944226;28;20439;-79
2023/02/22 08:26:26;;;;;;;6.93;6.30;;;;;;;;;;4949137;29;20498;-83
2023/02/22 08:28:52;;;;;;;6.37;5.90;;;;;;;;;;4960177;28;20442;-82
2023/02/22 08:31:18;;;;;;;8.57;7.73;;;;;;;;;;4937361;28;20520;-82
2023/02/22 08:33:47;;;;;;;6.47;5.90;;;;;;;;;;4937374;29;20442;-80
2023/02/22 08:36:13;;;;;;;6.63;6.07;;;;;;;;;;4933376;28;22372;-81
2023/02/22 08:38:39;;;;;;;6.43;6.03;;;;;;;;;;4933849;28;21203;-81
2023/02/22 08:41:05;;;;;;;6.13;5.53;;;;;;;;;;4921472;29;20515;-82
2023/02/22 08:43:31;;;;;;;7.37;6.63;;;;;;;;;;4933737;28;21048;-81
2023/02/22 08:45:57;;;;;;;7.17;6.27;;;;;;;;;;4948150;28;20457;-81
2023/02/22 08:48:23;;;;;;;6.73;6.30;;;;;;;;;;4951993;28;21114;-80
2023/02/22 08:50:49;;;;;;;7.33;6.67;;;;;;;;;;4955403;28;20436;-80
2023/02/22 08:53:16;;;;;;;7.53;6.80;;;;;;;;;;4950557;28;20484;-81
2023/02/22 08:55:42;;;;;;;7.00;5.57;;;;;;;;;;4955386;28;20461;-83
2023/02/22 08:58:08;;;;;;;6.50;5.97;;;;;;;;;;4937789;28;20601;-83
2023/02/22 09:00:37;;;;;;;6.87;6.37;;;;;;;;;;4953281;28;20438;-81
2023/02/22 09:03:03;;;;;;;8.10;6.83;;;;;;;;;;4949171;28;20458;-81
2023/02/22 09:05:32;;;;;;;7.83;6.53;;;;;;;;;;4952501;28;20441;-82
2023/02/22 09:07:59;;;;;;;7.70;7.00;;;;;;;;;;4949322;28;20458;-82
2023/02/22 09:10:27;;;;;;;8.13;7.43;;;;;;;;;;4948009;28;20820;-81
2023/02/22 09:12:56;;;;;;;8.30;7.70;;;;;;;;;;4938241;28;20459;-81
2023/02/22 09:15:23;;;;;;;7.30;6.80;;;;;;;;;;4951558;28;20449;-81
2023/02/22 09:17:49;;;;;;;7.63;6.93;;;;;;;;;;4951826;28;20450;-79
2023/02/22 09:20:16;;;;;;;8.03;7.57;;;;;;;;;;4953902;28;20941;-78
2023/02/22 09:22:44;;;;;;;7.33;6.63;;;;;;;;;;4949683;28;20472;-80
2023/02/22 09:25:10;;;;;;;7.43;6.83;;;;;;;;;;4956069;28;20447;-81
2023/02/22 09:27:37;;;;;;;7.73;7.17;;;;;;;;;;4955176;28;21181;-80
2023/02/22 09:30:03;;;;;;;10.03;7.37;;;;;;;;;;4959281;28;20549;-82
2023/02/22 09:32:30;;;;;;;9.23;7.87;;;;;;;;;;4951343;28;20532;-79
2023/02/22 09:34:56;;;;;;;8.37;7.77;;;;;;;;;;4956974;28;20450;-80
2023/02/22 09:37:22;;;;;;;8.43;7.73;;;;;;;;;;4955460;28;20453;-80
2023/02/22 09:39:48;;;;;;;9.27;8.47;;;;;;;;;;4955967;28;20867;-79
2023/02/22 09:42:24;;;;;;;8.60;7.90;;;;;;;;;;4953195;28;20445;-81
2023/02/22 09:45:05;;;;;;;11.63;8.73;;;;;;;;;;4957479;28;20457;-81
2023/02/22 09:47:55;;;;;;;8.30;7.70;;;;;;;;;;4954644;28;20453;-80
2023/02/22 09:50:23;;;;;;;8.30;7.50;;;;;;;;;;4941834;28;20457;-79
2023/02/22 09:53:07;;;;;;;9.87;8.97;;;;;;;;;;4959102;28;20971;-77
2023/02/22 09:55:36;;;;;;;10.00;9.13;;;;;;;;;;4940512;28;20472;-78
2023/02/22 09:58:05;;;;;;;10.87;9.70;;;;;;;;;;4962389;28;20441;-79
2023/02/22 10:00:36;;;;;;;9.70;8.83;;;;;;;;;;4955361;28;20470;-78
2023/02/22 10:03:05;;;;;;;8.47;7.70;;;;;;;;;;4975380;28;20449;-78
2023/02/22 10:05:32;;;;;;;12.90;9.70;;;;;;;;;;4971464;28;20491;-78
2023/02/22 10:08:04;;;;;;;9.90;9.10;;;;;;;;;;4968415;28;20476;-79
2023/02/22 10:10:33;;;;;;;14.33;9.60;;;;;;;;;;4950319;28;20891;-80
2023/02/22 10:13:19;;;;;;;11.10;8.47;;;;;;;;;;4967035;28;20463;-80
2023/02/22 10:15:50;;;;;;;10.17;9.30;;;;;;;;;;4962263;28;20456;-80
2023/02/22 10:18:19;;;;;;;16.10;10.03;;;;;;;;;;4966581;28;20487;-81
2023/02/22 10:20:45;;;;;;;15.70;11.77;;;;;;;;;;4967649;28;20441;-81
2023/02/22 10:23:24;;;;;;;9.30;8.60;;;;;;;;;;4968233;28;20510;-78
2023/02/22 10:25:54;;;;;;;11.00;9.60;;;;;;;;;;4967072;28;20437;-80
2023/02/22 10:28:23;;;;;;;15.30;10.50;;;;;;;;;;4965679;28;20425;-80
2023/02/22 10:30:53;;;;;;;8.80;8.20;;;;;;;;;;4959547;28;20453;-80
2023/02/22 10:33:25;;;;;;;9.93;9.20;;;;;;;;;;4964696;28;20566;-81
2023/02/22 10:35:52;;;;;;;11.90;9.67;;;;;;;;;;4960224;28;20785;-80
2023/02/22 10:38:19;;;;;;;10.17;8.83;;;;;;;;;;4957920;28;20477;-80
2023/02/22 10:40:57;;;;;;;10.40;9.30;;;;;;;;;;4960760;28;20453;-82
2023/02/22 10:43:24;;;;;;;13.07;9.60;;;;;;;;;;4968309;28;20444;-81
2023/02/22 10:45:54;;;;;;;9.50;8.33;;;;;;;;;;4971442;28;20444;-81
2023/02/22 10:48:21;;;;;;;9.10;8.40;;;;;;;;;;4966292;28;20452;-81
2023/02/22 10:50:47;;;;;;;9.70;8.80;;;;;;;;;;4955662;28;20419;-81
2023/02/22 10:53:14;;;;;;;9.67;8.07;;;;;;;;;;4972234;28;20579;-82
2023/02/22 10:56:00;;;;;;;8.70;8.10;;;;;;;;;;4953998;28;21022;-80
2023/02/22 10:58:26;;;;;;;8.57;7.83;;;;;;;;;;4967822;28;20488;-82
2023/02/22 11:00:52;;;;;;;7.50;6.80;;;;;;;;;;4968820;28;20413;-81
2023/02/22 11:03:22;;;;;;;7.03;6.50;;;;;;;;;;4975604;28;20425;-82
2023/02/22 11:05:49;;;;;;;6.13;5.60;;;;;;;;;;4971085;28;20908;-81
2023/02/22 11:08:18;;;;;;;7.03;6.37;;;;;;;;;;4948464;28;20788;-80
2023/02/22 11:10:44;;;;;;;6.23;5.67;;;;;;;;;;4972807;28;20492;-80
2023/02/22 11:13:17;;;;;;;6.77;6.17;;;;;;;;;;4972975;28;20441;-80
2023/02/22 11:15:44;;;;;;;8.50;6.43;;;;;;;;;;4973261;28;20428;-80
2023/02/22 11:18:27;;;;;;;5.90;5.50;;;;;;;;;;4973169;28;20945;-80
2023/02/22 11:21:05;;;;;;;7.80;7.00;;;;;;;;;;4964279;28;20420;-83
2023/02/22 11:23:31;;;;;;;7.73;6.20;;;;;;;;;;4968887;28;20456;-81
2023/02/22 11:26:02;;;;;;;5.73;5.20;;;;;;;;;;4953406;28;20433;-81
2023/02/22 11:28:32;;;;;;;5.67;5.40;;;;;;;;;;4938185;28;20547;-81
2023/02/22 11:31:09;;;;;;;6.00;5.43;;;;;;;;;;4955341;28;20988;-82
2023/02/22 11:33:36;;;;;;;5.97;5.50;;;;;;;;;;4958957;28;20456;-84
2023/02/22 11:36:07;;;;;;;6.07;5.57;;;;;;;;;;4962919;28;20460;-81
2023/02/22 11:38:35;;;;;;;5.73;5.40;;;;;;;;;;4971162;28;20474;-81
2023/02/22 11:41:04;;;;;;;5.63;5.20;;;;;;;;;;4970404;28;20606;-82
2023/02/22 11:43:30;;;;;;;5.20;5.00;;;;;;;;;;4971309;28;20532;-80
2023/02/22 11:45:59;;;;;;;6.07;5.57;;;;;;;;;;4964897;28;20477;-81
2023/02/22 11:48:26;;;;;;;5.90;5.53;;;;;;;;;;4972760;28;20420;-81
2023/02/22 11:51:02;;;;;;;5.03;4.73;;;;;;;;;;4957346;28;20450;-81
2023/02/22 11:53:31;;;;;;;5.10;4.90;;;;;;;;;;4944840;28;20441;-85
2023/02/22 11:56:17;;;;;;;5.63;5.43;;;;;;;;;;4971200;28;20476;-82
2023/02/22 11:58:49;;;;;;;10.80;7.87;;;;;;;;;;4959002;28;20498;-81
2023/02/22 12:01:24;;;;;;;7.77;7.07;;;;;;;;;;4964475;28;20437;-79
2023/02/22 12:03:57;;;;;;;5.67;5.30;;;;;;;;;;4961409;28;20731;-80
2023/02/22 12:06:41;;;;;;;5.80;5.23;;;;;;;;;;4974435;28;20476;-80
2023/02/22 12:09:22;;;;;;;6.10;5.53;;;;;;;;;;4971047;28;20448;-81
2023/02/22 12:11:49;;;;;;;5.20;4.73;;;;;;;;;;4976861;28;20441;-80
2023/02/22 12:14:15;;;;;;;7.00;6.40;;;;;;;;;;4965622;28;20464;-79
2023/02/22 12:16:50;;;;;;;5.40;5.00;;;;;;;;;;4956892;28;20535;-82
2023/02/22 12:19:24;;;;;;;7.83;7.20;;;;;;;;;;4968113;28;20480;-81
2023/02/22 12:21:55;;;;;;;8.13;5.97;;;;;;;;;;4970643;28;21166;-79
2023/02/22 12:24:23;;;;;;;6.43;5.93;;;;;;;;;;4953170;28;20793;-78
2023/02/22 12:27:11;;;;;;;7.03;6.63;;;;;;;;;;4973906;28;20468;-77
2023/02/22 12:29:40;;;;;;;7.37;6.47;;;;;;;;;;4972667;28;20455;-82
2023/02/22 12:32:12;;;;;;;7.10;6.47;;;;;;;;;;4967446;28;20441;-83
2023/02/22 12:34:42;;;;;;;6.70;6.10;;;;;;;;;;4966453;28;20457;-82
2023/02/22 12:37:15;;;;;;;6.70;6.20;;;;;;;;;;4962370;28;20456;-81
2023/02/22 12:39:44;;;;;;;7.60;6.90;;;;;;;;;;4970629;28;20472;-81
2023/02/22 12:42:13;;;;;;;5.37;5.07;;;;;;;;;;4957659;28;20457;-81
2023/02/22 12:44:47;;;;;;;5.90;5.50;;;;;;;;;;4942782;28;21224;-85
2023/02/22 12:47:19;;;;;;;6.97;6.57;;;;;;;;;;4962620;28;20869;-79
2023/02/22 12:49:54;;;;;;;7.00;6.40;;;;;;;;;;4958294;28;20778;-80
2023/02/22 12:52:26;;;;;;;7.23;6.67;;;;;;;;;;4960598;28;20495;-80
2023/02/22 12:55:10;;;;;;;7.00;6.47;;;;;;;;;;4966245;28;20546;-79
2023/02/22 12:57:51;;;;;;;7.70;7.13;;;;;;;;;;4961131;28;20524;-82
2023/02/22 13:00:29;;;;;;;6.70;6.17;;;;;;;;;;4958321;28;20993;-79
2023/02/22 13:03:01;;;;;;;6.07;5.77;;;;;;;;;;4959897;28;20456;-81
2023/02/22 13:05:30;;;;;;;6.10;5.70;;;;;;;;;;4936289;28;20450;-81
2023/02/22 13:08:20;;;;;;;6.73;6.33;;;;;;;;;;4958349;28;20444;-82
2023/02/22 13:10:46;;;;;;;7.20;6.70;;;;;;;;;;4952150;28;20944;-79
2023/02/22 13:13:27;;;;;;;7.57;6.83;;;;;;;;;;4962635;28;20492;-81
2023/02/22 13:16:14;;;;;;;7.50;6.73;;;;;;;;;;4962912;28;20449;-80
2023/02/22 13:18:40;;;;;;;8.77;7.87;;;;;;;;;;4964746;28;20479;-83
2023/02/22 13:21:15;;;;;;;7.77;7.17;;;;;;;;;;4941128;28;21003;-80
2023/02/22 13:24:04;;;;;;;7.63;6.93;;;;;;;;;;4964427;28;20786;-80
2023/02/22 13:26:49;;;;;;;7.23;6.53;;;;;;;;;;4968347;28;20420;-80
2023/02/22 13:29:18;;;;;;;9.80;7.50;;;;;;;;;;4959898;28;20888;-80
2023/02/22 13:32:03;;;;;;;6.37;5.87;;;;;;;;;;4965180;28;20413;-78
2023/02/22 13:34:58;;;;;;;6.30;5.90;;;;;;;;;;4962469;28;20447;-80
2023/02/22 13:37:44;;;;;;;7.77;7.17;;;;;;;;;;4953057;28;20457;-81
2023/02/22 13:40:29;;;;;;;9.13;6.13;;;;;;;;;;4972443;28;20491;-80
2023/02/22 13:43:18;;;;;;;6.37;5.77;;;;;;;;;;4968858;28;20512;-80
2023/02/22 13:45:59;;;;;;;6.67;6.17;;;;;;;;;;4942220;28;20464;-80
2023/02/22 13:48:43;;;;;;;7.10;5.73;;;;;;;;;;4947804;28;20517;-79
2023/02/22 13:51:15;;;;;;;6.93;6.30;;;;;;;;;;4959947;28;20456;-83
2023/02/22 13:53:46;;;;;;;7.40;6.80;;;;;;;;;;4947461;28;20785;-80
2023/02/22 13:56:13;;;;;;;11.00;9.47;;;;;;;;;;4962345;28;20460;-78
2023/02/22 13:58:53;;;;;;;5.43;5.13;;;;;;;;;;4963149;28;20496;-80
2023/02/22 14:01:37;;;;;;;6.97;6.40;;;;;;;;;;4957484;28;20444;-77
2023/02/22 14:04:19;;;;;;;7.07;6.37;;;;;;;;;;4943749;28;21018;-79
2023/02/22 14:06:45;;;;;;;7.30;6.60;;;;;;;;;;4958332;28;20445;-79
2023/02/22 14:09:18;;;;;;;6.53;5.93;;;;;;;;;;4969022;28;20433;-81
2023/02/22 14:11:53;;;;;;;5.90;5.50;;;;;;;;;;4974033;28;20979;-78
2023/02/22 14:14:19;;;;;;;6.70;6.17;;;;;;;;;;4971989;28;20439;-80
2023/02/22 14:17:05;;;;;;;7.30;6.40;;;;;;;;;;4958531;28;20563;-79
2023/02/22 14:19:31;;;;;;;6.63;6.13;;;;;;;;;;4961289;28;20468;-81
2023/02/22 14:22:01;;;;;;;7.53;6.63;;;;;;;;;;4960697;28;20488;-82
2023/02/22 14:24:43;;;;;;;5.37;4.97;;;;;;;;;;4968695;28;20457;-79
2023/02/22 14:27:12;;;;;;;10.43;6.73;;;;;;;;;;4956267;28;20590;-79
2023/02/22 14:29:48;;;;;;;6.40;5.80;;;;;;;;;;4955873;28;20449;-80
2023/02/22 14:32:16;;;;;;;7.47;6.83;;;;;;;;;;4961698;28;20467;-79
2023/02/22 14:34:54;;;;;;;7.60;7.00;;;;;;;;;;4947832;28;20809;-78
2023/02/22 14:37:27;;;;;;;8.07;7.37;;;;;;;;;;4958437;28;20421;-82
2023/02/22 14:40:00;;;;;;;7.80;7.07;;;;;;;;;;4959617;28;20469;-82
2023/02/22 14:42:26;;;;;;;7.43;6.90;;;;;;;;;;4949318;28;20595;-81
2023/02/22 14:44:59;;;;;;;8.57;7.97;;;;;;;;;;4964788;28;20871;-78